Pagrindinis puslapis
METAR-TAF:

METAR-TAF

Oro uostai :

Tarptautinis O'Haro oro uostas

Čikaga, Ilinojus, Jungtinės Amerikos Valstijos

platuma: 41-58-47N, ilguma: 087-54-16W, Aukštis: 203 m

Dabartinis oras

Ataskaita buvo paskelbta 18 minutes, ne 05:51 UTC
Vėjas 5 kt iš Pietų/Pietvakarių
Temperatūra -2°C
Drėgmė 86%
Slėgis 1028 hPa
Matomumas: 16.1 km
Mažai debesys ne aukštis 25000 ft

METAR: KORD 070551Z 21005KT 10SM FEW250 M02/M04 A3036 RMK AO2 SLP289 T10221044 10000 21028 400561028 50001

Laikas: 00:09 (06:09 UTC)

Prognozė

Ataskaita buvo paskelbta 49 minutes, ne 05:20 UTC
Prognozė galioja nuo 07 metu 06 UTC su 08 metu 12 UTC
Vėjas 3 kt nuo kintamojo kryptimis
Matomumas: 10 km
Mažai debesys ne aukštis 25000 ft
Nuo 07 metu 1400 UTC
Vėjas 9 kt iš Pietų/Pietvakarių
Matomumas: 10 km
Mažai debesys ne aukštis 9000 ft
Išsisklaidę debesys ne aukštis 25000 ft

TAF: KORD 070520Z 0706/0812 VRB03KT P6SM FEW250 FM071400 20009KT P6SM FEW090 SCT250

Orai ataskaitas ir orų prognozės (METAR, TAF).

turimą stotys yra geltonos ir raudonos taškus žemėlapyje.

Perkelti pele per norėdami pamatyti stoties vardą.

Tada spustelėkite, norėdami matyti oro stebėjimo ir prognozės.

Norėdami pakeisti žemėlapį: spustelėkite ant žalios mygtukų su juodo kryžiaus žemyn,; žalią mygtuką su brūkšneliu, jei norite nutolinti; arba žalių rodyklių gretimoms žemėlapius.


METAR-TAF: